sensor_id;sensor_type;location;lat;lon;timestamp;temperature;humidity
25112;DHT22;13092;51.996;4.458;2024-02-23T00:01:37;8.40;99.90
25112;DHT22;13092;51.996;4.458;2024-02-23T00:04:05;8.30;99.90
25112;DHT22;13092;51.996;4.458;2024-02-23T00:06:34;8.20;99.90
25112;DHT22;13092;51.996;4.458;2024-02-23T00:09:03;8.40;99.90
25112;DHT22;13092;51.996;4.458;2024-02-23T00:11:34;8.10;99.90
25112;DHT22;13092;51.996;4.458;2024-02-23T00:14:07;8.10;99.90
25112;DHT22;13092;51.996;4.458;2024-02-23T00:16:40;7.90;99.90
25112;DHT22;13092;51.996;4.458;2024-02-23T00:19:08;8.10;99.90
25112;DHT22;13092;51.996;4.458;2024-02-23T00:21:37;8.20;99.90
25112;DHT22;13092;51.996;4.458;2024-02-23T00:24:06;8.10;99.90
25112;DHT22;13092;51.996;4.458;2024-02-23T00:26:34;8.00;99.90
25112;DHT22;13092;51.996;4.458;2024-02-23T00:29:02;8.00;99.90
25112;DHT22;13092;51.996;4.458;2024-02-23T00:31:31;8.10;99.90
25112;DHT22;13092;51.996;4.458;2024-02-23T00:34:00;7.80;99.90
25112;DHT22;13092;51.996;4.458;2024-02-23T00:36:28;7.70;99.90
25112;DHT22;13092;51.996;4.458;2024-02-23T00:38:57;7.70;99.90
25112;DHT22;13092;51.996;4.458;2024-02-23T00:41:25;7.90;99.90
25112;DHT22;13092;51.996;4.458;2024-02-23T00:43:53;8.10;99.90
25112;DHT22;13092;51.996;4.458;2024-02-23T00:46:21;7.80;99.90
25112;DHT22;13092;51.996;4.458;2024-02-23T00:48:55;7.50;99.90
25112;DHT22;13092;51.996;4.458;2024-02-23T00:51:26;7.50;99.90
25112;DHT22;13092;51.996;4.458;2024-02-23T00:53:54;7.70;99.90
25112;DHT22;13092;51.996;4.458;2024-02-23T00:56:24;7.40;99.90
25112;DHT22;13092;51.996;4.458;2024-02-23T00:59:06;7.70;99.90
25112;DHT22;13092;51.996;4.458;2024-02-23T01:01:34;7.40;99.90
25112;DHT22;13092;51.996;4.458;2024-02-23T01:04:03;7.50;99.90
25112;DHT22;13092;51.996;4.458;2024-02-23T01:06:32;7.40;99.90
25112;DHT22;13092;51.996;4.458;2024-02-23T01:09:00;7.50;99.90
25112;DHT22;13092;51.996;4.458;2024-02-23T01:11:31;7.40;99.90
25112;DHT22;13092;51.996;4.458;2024-02-23T01:13:59;7.40;99.90
25112;DHT22;13092;51.996;4.458;2024-02-23T01:16:30;7.40;99.90
25112;DHT22;13092;51.996;4.458;2024-02-23T01:18:59;7.40;99.90
25112;DHT22;13092;51.996;4.458;2024-02-23T01:21:27;7.80;99.90
25112;DHT22;13092;51.996;4.458;2024-02-23T01:23:58;7.40;99.90
25112;DHT22;13092;51.996;4.458;2024-02-23T01:26:27;7.60;99.90
25112;DHT22;13092;51.996;4.458;2024-02-23T01:28:55;7.40;99.90
25112;DHT22;13092;51.996;4.458;2024-02-23T01:31:23;7.40;99.90
25112;DHT22;13092;51.996;4.458;2024-02-23T01:33:51;7.40;99.90
25112;DHT22;13092;51.996;4.458;2024-02-23T01:36:20;7.50;99.90
25112;DHT22;13092;51.996;4.458;2024-02-23T01:38:48;7.40;99.90
25112;DHT22;13092;51.996;4.458;2024-02-23T01:41:18;7.40;99.90
25112;DHT22;13092;51.996;4.458;2024-02-23T01:43:46;8.30;99.90
25112;DHT22;13092;51.996;4.458;2024-02-23T01:46:14;7.30;99.90
25112;DHT22;13092;51.996;4.458;2024-02-23T01:48:45;7.40;99.90
25112;DHT22;13092;51.996;4.458;2024-02-23T01:51:14;8.10;99.90
25112;DHT22;13092;51.996;4.458;2024-02-23T01:53:42;7.40;99.90
25112;DHT22;13092;51.996;4.458;2024-02-23T01:56:13;7.60;99.90
25112;DHT22;13092;51.996;4.458;2024-02-23T01:58:47;7.40;99.90
25112;DHT22;13092;51.996;4.458;2024-02-23T02:01:15;7.80;99.90
25112;DHT22;13092;51.996;4.458;2024-02-23T02:03:43;7.30;99.90
25112;DHT22;13092;51.996;4.458;2024-02-23T02:06:12;8.10;99.90
25112;DHT22;13092;51.996;4.458;2024-02-23T02:08:40;7.40;99.90
25112;DHT22;13092;51.996;4.458;2024-02-23T02:11:09;7.70;99.90
25112;DHT22;13092;51.996;4.458;2024-02-23T02:13:37;8.10;99.90
25112;DHT22;13092;51.996;4.458;2024-02-23T02:16:07;7.40;99.90
25112;DHT22;13092;51.996;4.458;2024-02-23T02:18:35;8.60;99.90
25112;DHT22;13092;51.996;4.458;2024-02-23T02:21:03;7.40;99.90
25112;DHT22;13092;51.996;4.458;2024-02-23T02:23:32;7.50;99.90
25112;DHT22;13092;51.996;4.458;2024-02-23T02:26:00;7.70;99.90
25112;DHT22;13092;51.996;4.458;2024-02-23T02:28:29;7.50;99.90
25112;DHT22;13092;51.996;4.458;2024-02-23T02:30:57;7.90;99.90
25112;DHT22;13092;51.996;4.458;2024-02-23T02:33:26;8.20;99.90
25112;DHT22;13092;51.996;4.458;2024-02-23T02:35:54;7.50;99.90
25112;DHT22;13092;51.996;4.458;2024-02-23T02:38:23;7.80;99.90
25112;DHT22;13092;51.996;4.458;2024-02-23T02:40:51;7.60;99.90
25112;DHT22;13092;51.996;4.458;2024-02-23T02:43:19;7.50;99.90
25112;DHT22;13092;51.996;4.458;2024-02-23T02:45:47;7.60;99.90
25112;DHT22;13092;51.996;4.458;2024-02-23T02:48:16;7.50;99.90
25112;DHT22;13092;51.996;4.458;2024-02-23T02:50:45;7.40;99.90
25112;DHT22;13092;51.996;4.458;2024-02-23T02:53:14;7.40;99.90
25112;DHT22;13092;51.996;4.458;2024-02-23T02:55:43;7.50;99.90
25112;DHT22;13092;51.996;4.458;2024-02-23T02:58:11;7.50;99.90
25112;DHT22;13092;51.996;4.458;2024-02-23T03:00:40;7.40;99.90
25112;DHT22;13092;51.996;4.458;2024-02-23T03:03:08;7.40;99.90
25112;DHT22;13092;51.996;4.458;2024-02-23T03:05:37;7.40;99.90
25112;DHT22;13092;51.996;4.458;2024-02-23T03:08:07;7.30;99.90
25112;DHT22;13092;51.996;4.458;2024-02-23T03:10:35;7.30;99.90
25112;DHT22;13092;51.996;4.458;2024-02-23T03:13:03;7.30;99.90
25112;DHT22;13092;51.996;4.458;2024-02-23T03:15:31;7.30;99.90
25112;DHT22;13092;51.996;4.458;2024-02-23T03:18:00;7.30;99.90
25112;DHT22;13092;51.996;4.458;2024-02-23T03:20:29;7.20;99.90
25112;DHT22;13092;51.996;4.458;2024-02-23T03:22:57;7.50;99.90
25112;DHT22;13092;51.996;4.458;2024-02-23T03:25:27;7.20;99.90
25112;DHT22;13092;51.996;4.458;2024-02-23T03:27:55;7.30;99.90
25112;DHT22;13092;51.996;4.458;2024-02-23T03:30:23;7.20;99.90
25112;DHT22;13092;51.996;4.458;2024-02-23T03:32:51;7.10;99.90
25112;DHT22;13092;51.996;4.458;2024-02-23T03:35:19;7.10;99.90
25112;DHT22;13092;51.996;4.458;2024-02-23T03:37:47;7.00;99.90
25112;DHT22;13092;51.996;4.458;2024-02-23T03:40:16;7.00;99.90
25112;DHT22;13092;51.996;4.458;2024-02-23T03:42:46;6.90;99.90
25112;DHT22;13092;51.996;4.458;2024-02-23T03:45:14;7.20;99.90
25112;DHT22;13092;51.996;4.458;2024-02-23T03:47:42;6.90;99.90
25112;DHT22;13092;51.996;4.458;2024-02-23T03:50:11;6.90;99.90
25112;DHT22;13092;51.996;4.458;2024-02-23T03:52:39;6.90;99.90
25112;DHT22;13092;51.996;4.458;2024-02-23T03:55:07;7.10;99.90
25112;DHT22;13092;51.996;4.458;2024-02-23T03:57:35;6.90;99.90
25112;DHT22;13092;51.996;4.458;2024-02-23T04:00:06;6.80;99.90
25112;DHT22;13092;51.996;4.458;2024-02-23T04:02:35;6.80;99.90
25112;DHT22;13092;51.996;4.458;2024-02-23T04:05:05;6.90;99.90
25112;DHT22;13092;51.996;4.458;2024-02-23T04:07:33;6.80;99.90
25112;DHT22;13092;51.996;4.458;2024-02-23T04:10:01;6.80;99.90
25112;DHT22;13092;51.996;4.458;2024-02-23T04:12:31;6.70;99.90
25112;DHT22;13092;51.996;4.458;2024-02-23T04:14:59;7.00;99.90
25112;DHT22;13092;51.996;4.458;2024-02-23T04:17:29;6.70;99.90
25112;DHT22;13092;51.996;4.458;2024-02-23T04:19:57;6.90;99.90
25112;DHT22;13092;51.996;4.458;2024-02-23T04:22:27;6.90;99.90
25112;DHT22;13092;51.996;4.458;2024-02-23T04:24:55;6.70;99.90
25112;DHT22;13092;51.996;4.458;2024-02-23T04:27:22;6.70;99.90
25112;DHT22;13092;51.996;4.458;2024-02-23T04:29:50;6.70;99.90
25112;DHT22;13092;51.996;4.458;2024-02-23T04:32:18;7.00;99.90
25112;DHT22;13092;51.996;4.458;2024-02-23T04:34:48;6.60;99.90
25112;DHT22;13092;51.996;4.458;2024-02-23T04:37:16;7.10;99.90
25112;DHT22;13092;51.996;4.458;2024-02-23T04:39:44;6.90;99.90
25112;DHT22;13092;51.996;4.458;2024-02-23T04:42:12;7.00;99.90
25112;DHT22;13092;51.996;4.458;2024-02-23T04:44:41;6.80;99.90
25112;DHT22;13092;51.996;4.458;2024-02-23T04:47:09;7.10;99.90
25112;DHT22;13092;51.996;4.458;2024-02-23T04:49:37;6.80;99.90
25112;DHT22;13092;51.996;4.458;2024-02-23T04:52:07;6.80;99.90
25112;DHT22;13092;51.996;4.458;2024-02-23T04:54:36;6.80;99.90
25112;DHT22;13092;51.996;4.458;2024-02-23T04:57:04;6.80;99.90
25112;DHT22;13092;51.996;4.458;2024-02-23T04:59:32;7.30;99.90
25112;DHT22;13092;51.996;4.458;2024-02-23T05:02:00;6.80;99.90
25112;DHT22;13092;51.996;4.458;2024-02-23T05:04:29;7.00;99.90
25112;DHT22;13092;51.996;4.458;2024-02-23T05:06:57;6.90;99.90
25112;DHT22;13092;51.996;4.458;2024-02-23T05:09:26;6.90;99.90
25112;DHT22;13092;51.996;4.458;2024-02-23T05:11:54;7.40;99.90
25112;DHT22;13092;51.996;4.458;2024-02-23T05:14:23;7.00;99.90
25112;DHT22;13092;51.996;4.458;2024-02-23T05:16:51;7.20;99.90
25112;DHT22;13092;51.996;4.458;2024-02-23T05:19:19;7.30;99.90
25112;DHT22;13092;51.996;4.458;2024-02-23T05:21:48;7.20;99.90
25112;DHT22;13092;51.996;4.458;2024-02-23T05:24:16;7.50;99.90
25112;DHT22;13092;51.996;4.458;2024-02-23T05:26:45;7.00;99.90
25112;DHT22;13092;51.996;4.458;2024-02-23T05:29:14;7.30;99.90
25112;DHT22;13092;51.996;4.458;2024-02-23T05:31:48;7.10;99.90
25112;DHT22;13092;51.996;4.458;2024-02-23T05:34:16;7.40;99.90
25112;DHT22;13092;51.996;4.458;2024-02-23T05:36:45;7.10;99.90
25112;DHT22;13092;51.996;4.458;2024-02-23T05:39:14;7.10;99.90
25112;DHT22;13092;51.996;4.458;2024-02-23T05:41:45;7.10;99.90
25112;DHT22;13092;51.996;4.458;2024-02-23T05:44:14;7.00;99.90
25112;DHT22;13092;51.996;4.458;2024-02-23T05:46:42;7.10;99.90
25112;DHT22;13092;51.996;4.458;2024-02-23T05:49:11;7.50;99.90
25112;DHT22;13092;51.996;4.458;2024-02-23T05:51:40;7.60;99.90
25112;DHT22;13092;51.996;4.458;2024-02-23T05:54:08;7.40;99.90
25112;DHT22;13092;51.996;4.458;2024-02-23T05:56:36;7.10;99.90
25112;DHT22;13092;51.996;4.458;2024-02-23T05:59:06;7.10;99.90
25112;DHT22;13092;51.996;4.458;2024-02-23T06:01:34;7.30;99.90
25112;DHT22;13092;51.996;4.458;2024-02-23T06:04:03;8.20;99.90
25112;DHT22;13092;51.996;4.458;2024-02-23T06:06:32;7.10;99.90
25112;DHT22;13092;51.996;4.458;2024-02-23T06:09:00;7.10;99.90
25112;DHT22;13092;51.996;4.458;2024-02-23T06:11:29;7.90;99.90
25112;DHT22;13092;51.996;4.458;2024-02-23T06:13:57;7.50;99.90
25112;DHT22;13092;51.996;4.458;2024-02-23T06:16:27;7.10;99.90
25112;DHT22;13092;51.996;4.458;2024-02-23T06:18:55;7.50;99.90
25112;DHT22;13092;51.996;4.458;2024-02-23T06:21:23;7.10;99.90
25112;DHT22;13092;51.996;4.458;2024-02-23T06:23:51;7.30;99.90
25112;DHT22;13092;51.996;4.458;2024-02-23T06:26:20;7.40;99.90
25112;DHT22;13092;51.996;4.458;2024-02-23T06:28:48;7.50;99.90
25112;DHT22;13092;51.996;4.458;2024-02-23T06:31:16;7.10;99.90
25112;DHT22;13092;51.996;4.458;2024-02-23T06:33:46;7.00;99.90
25112;DHT22;13092;51.996;4.458;2024-02-23T06:36:16;7.70;99.90
25112;DHT22;13092;51.996;4.458;2024-02-23T06:38:45;7.10;99.90
25112;DHT22;13092;51.996;4.458;2024-02-23T06:41:13;7.10;99.90
25112;DHT22;13092;51.996;4.458;2024-02-23T06:43:41;7.00;99.90
25112;DHT22;13092;51.996;4.458;2024-02-23T06:46:09;7.00;99.90
25112;DHT22;13092;51.996;4.458;2024-02-23T06:48:38;7.10;99.90
25112;DHT22;13092;51.996;4.458;2024-02-23T06:51:08;7.10;99.90
25112;DHT22;13092;51.996;4.458;2024-02-23T06:53:37;7.00;99.90
25112;DHT22;13092;51.996;4.458;2024-02-23T06:56:06;7.20;99.90
25112;DHT22;13092;51.996;4.458;2024-02-23T06:58:35;7.10;99.90
25112;DHT22;13092;51.996;4.458;2024-02-23T07:01:04;7.10;99.90
25112;DHT22;13092;51.996;4.458;2024-02-23T07:03:33;8.30;99.90
25112;DHT22;13092;51.996;4.458;2024-02-23T07:06:04;7.30;99.90
25112;DHT22;13092;51.996;4.458;2024-02-23T07:08:33;7.10;99.90
25112;DHT22;13092;51.996;4.458;2024-02-23T07:11:02;7.40;99.90
25112;DHT22;13092;51.996;4.458;2024-02-23T07:13:30;7.10;99.90
25112;DHT22;13092;51.996;4.458;2024-02-23T07:16:00;7.50;99.90
25112;DHT22;13092;51.996;4.458;2024-02-23T07:18:28;7.00;99.90
25112;DHT22;13092;51.996;4.458;2024-02-23T07:20:57;7.00;99.90
25112;DHT22;13092;51.996;4.458;2024-02-23T07:23:25;7.00;99.90
25112;DHT22;13092;51.996;4.458;2024-02-23T07:25:55;7.00;99.90
25112;DHT22;13092;51.996;4.458;2024-02-23T07:28:23;7.00;99.90
25112;DHT22;13092;51.996;4.458;2024-02-23T07:30:51;7.00;99.90
25112;DHT22;13092;51.996;4.458;2024-02-23T07:33:19;7.00;99.90
25112;DHT22;13092;51.996;4.458;2024-02-23T07:35:48;6.90;99.90
25112;DHT22;13092;51.996;4.458;2024-02-23T07:38:16;7.10;99.90
25112;DHT22;13092;51.996;4.458;2024-02-23T07:40:45;7.20;99.90
25112;DHT22;13092;51.996;4.458;2024-02-23T07:43:14;7.10;99.90
25112;DHT22;13092;51.996;4.458;2024-02-23T07:45:42;6.80;99.90
25112;DHT22;13092;51.996;4.458;2024-02-23T07:48:11;6.70;99.90
25112;DHT22;13092;51.996;4.458;2024-02-23T07:50:39;6.70;99.90
25112;DHT22;13092;51.996;4.458;2024-02-23T07:53:07;6.60;99.90
25112;DHT22;13092;51.996;4.458;2024-02-23T07:55:35;6.60;99.90
25112;DHT22;13092;51.996;4.458;2024-02-23T07:58:04;6.90;99.90
25112;DHT22;13092;51.996;4.458;2024-02-23T08:00:33;6.60;99.90
25112;DHT22;13092;51.996;4.458;2024-02-23T08:03:05;6.90;99.90
25112;DHT22;13092;51.996;4.458;2024-02-23T08:05:35;6.60;99.90
25112;DHT22;13092;51.996;4.458;2024-02-23T08:08:04;7.00;99.90
25112;DHT22;13092;51.996;4.458;2024-02-23T08:10:33;6.70;99.90
25112;DHT22;13092;51.996;4.458;2024-02-23T08:13:01;6.70;99.90
25112;DHT22;13092;51.996;4.458;2024-02-23T08:15:29;6.70;99.90
25112;DHT22;13092;51.996;4.458;2024-02-23T08:17:59;6.80;99.90
25112;DHT22;13092;51.996;4.458;2024-02-23T08:20:27;7.00;99.90
25112;DHT22;13092;51.996;4.458;2024-02-23T08:22:55;7.00;99.90
25112;DHT22;13092;51.996;4.458;2024-02-23T08:25:24;6.80;99.90
25112;DHT22;13092;51.996;4.458;2024-02-23T08:27:55;6.80;99.90
25112;DHT22;13092;51.996;4.458;2024-02-23T08:30:25;7.60;99.90
25112;DHT22;13092;51.996;4.458;2024-02-23T08:32:55;7.00;99.90
25112;DHT22;13092;51.996;4.458;2024-02-23T08:35:24;6.80;99.90
25112;DHT22;13092;51.996;4.458;2024-02-23T08:37:52;7.00;99.90
25112;DHT22;13092;51.996;4.458;2024-02-23T08:40:21;7.00;99.90
25112;DHT22;13092;51.996;4.458;2024-02-23T08:42:49;7.60;99.90
25112;DHT22;13092;51.996;4.458;2024-02-23T08:45:18;6.80;99.90
25112;DHT22;13092;51.996;4.458;2024-02-23T08:47:47;6.80;99.90
25112;DHT22;13092;51.996;4.458;2024-02-23T08:50:15;6.90;99.90
25112;DHT22;13092;51.996;4.458;2024-02-23T08:52:44;6.80;99.90
25112;DHT22;13092;51.996;4.458;2024-02-23T08:55:13;6.80;99.90
25112;DHT22;13092;51.996;4.458;2024-02-23T08:57:41;6.90;99.90
25112;DHT22;13092;51.996;4.458;2024-02-23T09:00:10;6.80;99.90
25112;DHT22;13092;51.996;4.458;2024-02-23T09:02:43;7.00;99.90
25112;DHT22;13092;51.996;4.458;2024-02-23T09:05:12;7.00;99.90
25112;DHT22;13092;51.996;4.458;2024-02-23T09:07:40;7.00;99.90
25112;DHT22;13092;51.996;4.458;2024-02-23T09:10:11;7.00;99.90
25112;DHT22;13092;51.996;4.458;2024-02-23T09:12:39;7.10;99.90
25112;DHT22;13092;51.996;4.458;2024-02-23T09:15:08;7.50;99.90
25112;DHT22;13092;51.996;4.458;2024-02-23T09:17:36;7.20;99.90
25112;DHT22;13092;51.996;4.458;2024-02-23T09:20:05;7.60;99.90
25112;DHT22;13092;51.996;4.458;2024-02-23T09:22:34;7.30;99.90
25112;DHT22;13092;51.996;4.458;2024-02-23T09:25:03;7.30;99.90
25112;DHT22;13092;51.996;4.458;2024-02-23T09:27:34;7.30;99.90
25112;DHT22;13092;51.996;4.458;2024-02-23T09:30:03;7.40;99.90
25112;DHT22;13092;51.996;4.458;2024-02-23T09:32:33;7.50;99.90
25112;DHT22;13092;51.996;4.458;2024-02-23T09:35:01;7.50;99.90
25112;DHT22;13092;51.996;4.458;2024-02-23T09:37:30;7.40;99.90
25112;DHT22;13092;51.996;4.458;2024-02-23T09:39:59;7.50;99.90
25112;DHT22;13092;51.996;4.458;2024-02-23T09:42:28;7.60;99.90
25112;DHT22;13092;51.996;4.458;2024-02-23T09:45:00;7.80;99.90
25112;DHT22;13092;51.996;4.458;2024-02-23T09:47:29;7.70;99.90
25112;DHT22;13092;51.996;4.458;2024-02-23T09:50:01;7.70;99.90
25112;DHT22;13092;51.996;4.458;2024-02-23T09:52:32;8.00;99.90
25112;DHT22;13092;51.996;4.458;2024-02-23T09:55:00;7.70;99.90
25112;DHT22;13092;51.996;4.458;2024-02-23T09:57:30;7.90;99.90
25112;DHT22;13092;51.996;4.458;2024-02-23T10:00:01;7.90;99.90
25112;DHT22;13092;51.996;4.458;2024-02-23T10:02:34;8.00;99.90
25112;DHT22;13092;51.996;4.458;2024-02-23T10:05:03;8.10;99.90
25112;DHT22;13092;51.996;4.458;2024-02-23T10:07:35;8.10;99.90
25112;DHT22;13092;51.996;4.458;2024-02-23T10:10:06;8.20;99.90
25112;DHT22;13092;51.996;4.458;2024-02-23T10:12:35;8.20;99.90
25112;DHT22;13092;51.996;4.458;2024-02-23T10:15:06;8.30;99.90
25112;DHT22;13092;51.996;4.458;2024-02-23T10:17:34;8.30;99.90
25112;DHT22;13092;51.996;4.458;2024-02-23T10:20:04;8.50;99.90
25112;DHT22;13092;51.996;4.458;2024-02-23T10:22:32;8.50;99.90
25112;DHT22;13092;51.996;4.458;2024-02-23T10:25:02;8.50;99.90
25112;DHT22;13092;51.996;4.458;2024-02-23T10:27:30;8.60;99.90
25112;DHT22;13092;51.996;4.458;2024-02-23T10:29:58;8.90;99.90
25112;DHT22;13092;51.996;4.458;2024-02-23T10:32:29;8.40;99.90
25112;DHT22;13092;51.996;4.458;2024-02-23T10:35:00;8.80;99.90
25112;DHT22;13092;51.996;4.458;2024-02-23T10:37:31;9.40;99.90
25112;DHT22;13092;51.996;4.458;2024-02-23T10:40:03;9.00;99.90
25112;DHT22;13092;51.996;4.458;2024-02-23T10:42:36;8.90;99.90
25112;DHT22;13092;51.996;4.458;2024-02-23T10:45:06;9.00;99.90
25112;DHT22;13092;51.996;4.458;2024-02-23T10:47:37;8.60;99.90
25112;DHT22;13092;51.996;4.458;2024-02-23T10:50:06;9.10;99.90
25112;DHT22;13092;51.996;4.458;2024-02-23T10:52:35;8.80;99.90
25112;DHT22;13092;51.996;4.458;2024-02-23T10:55:04;9.10;99.90
25112;DHT22;13092;51.996;4.458;2024-02-23T10:57:34;8.90;99.90
25112;DHT22;13092;51.996;4.458;2024-02-23T11:00:04;9.10;99.90
25112;DHT22;13092;51.996;4.458;2024-02-23T11:02:36;9.00;99.90
25112;DHT22;13092;51.996;4.458;2024-02-23T11:05:07;9.00;99.90
25112;DHT22;13092;51.996;4.458;2024-02-23T11:07:39;9.00;99.90
25112;DHT22;13092;51.996;4.458;2024-02-23T11:10:08;8.90;99.90
25112;DHT22;13092;51.996;4.458;2024-02-23T11:12:36;8.90;99.90
25112;DHT22;13092;51.996;4.458;2024-02-23T11:15:05;9.10;99.90
25112;DHT22;13092;51.996;4.458;2024-02-23T11:17:37;8.90;99.90
25112;DHT22;13092;51.996;4.458;2024-02-23T11:20:07;9.40;99.90
25112;DHT22;13092;51.996;4.458;2024-02-23T11:22:36;8.90;99.90
25112;DHT22;13092;51.996;4.458;2024-02-23T11:25:07;8.90;99.90
25112;DHT22;13092;51.996;4.458;2024-02-23T11:27:37;9.00;99.90
25112;DHT22;13092;51.996;4.458;2024-02-23T11:30:08;9.00;99.90
25112;DHT22;13092;51.996;4.458;2024-02-23T11:32:40;9.00;99.90
25112;DHT22;13092;51.996;4.458;2024-02-23T11:35:10;9.10;99.90
25112;DHT22;13092;51.996;4.458;2024-02-23T11:37:47;9.10;99.90
25112;DHT22;13092;51.996;4.458;2024-02-23T11:40:17;9.10;99.90
25112;DHT22;13092;51.996;4.458;2024-02-23T11:42:46;9.10;99.90
25112;DHT22;13092;51.996;4.458;2024-02-23T11:45:15;9.20;99.90
25112;DHT22;13092;51.996;4.458;2024-02-23T11:47:45;9.30;99.90
25112;DHT22;13092;51.996;4.458;2024-02-23T11:50:13;9.30;99.90
25112;DHT22;13092;51.996;4.458;2024-02-23T11:52:42;9.40;99.90
25112;DHT22;13092;51.996;4.458;2024-02-23T11:55:10;9.70;99.90
25112;DHT22;13092;51.996;4.458;2024-02-23T11:57:40;9.60;99.90
25112;DHT22;13092;51.996;4.458;2024-02-23T12:00:14;9.50;99.90
25112;DHT22;13092;51.996;4.458;2024-02-23T12:02:45;9.50;99.90
25112;DHT22;13092;51.996;4.458;2024-02-23T12:05:15;9.40;99.90
25112;DHT22;13092;51.996;4.458;2024-02-23T12:07:44;9.40;99.90
25112;DHT22;13092;51.996;4.458;2024-02-23T12:10:14;9.40;99.90
25112;DHT22;13092;51.996;4.458;2024-02-23T12:12:42;9.50;99.90
25112;DHT22;13092;51.996;4.458;2024-02-23T12:15:10;9.50;99.90
25112;DHT22;13092;51.996;4.458;2024-02-23T12:17:48;9.50;99.90
25112;DHT22;13092;51.996;4.458;2024-02-23T12:20:16;9.80;99.90
25112;DHT22;13092;51.996;4.458;2024-02-23T12:22:46;9.70;99.90
25112;DHT22;13092;51.996;4.458;2024-02-23T12:25:14;9.70;99.90
25112;DHT22;13092;51.996;4.458;2024-02-23T12:27:43;10.00;99.90
25112;DHT22;13092;51.996;4.458;2024-02-23T12:30:13;10.00;99.90
25112;DHT22;13092;51.996;4.458;2024-02-23T12:32:43;9.90;99.90
25112;DHT22;13092;51.996;4.458;2024-02-23T12:35:14;10.00;99.90
25112;DHT22;13092;51.996;4.458;2024-02-23T12:37:43;10.00;99.90
25112;DHT22;13092;51.996;4.458;2024-02-23T12:40:12;10.10;99.90
25112;DHT22;13092;51.996;4.458;2024-02-23T12:42:41;10.10;99.90
25112;DHT22;13092;51.996;4.458;2024-02-23T12:45:09;10.10;99.90
25112;DHT22;13092;51.996;4.458;2024-02-23T12:47:37;10.20;99.90
25112;DHT22;13092;51.996;4.458;2024-02-23T12:50:07;10.50;99.90
25112;DHT22;13092;51.996;4.458;2024-02-23T12:52:38;10.10;99.90
25112;DHT22;13092;51.996;4.458;2024-02-23T12:55:07;10.20;99.90
25112;DHT22;13092;51.996;4.458;2024-02-23T12:57:35;10.10;99.90
25112;DHT22;13092;51.996;4.458;2024-02-23T13:00:04;10.10;99.90
25112;DHT22;13092;51.996;4.458;2024-02-23T13:02:33;10.20;99.90
25112;DHT22;13092;51.996;4.458;2024-02-23T13:05:01;10.50;99.90
25112;DHT22;13092;51.996;4.458;2024-02-23T13:07:29;10.50;99.90
25112;DHT22;13092;51.996;4.458;2024-02-23T13:09:59;10.40;99.90
25112;DHT22;13092;51.996;4.458;2024-02-23T13:12:27;11.20;99.90
25112;DHT22;13092;51.996;4.458;2024-02-23T13:14:55;10.40;99.90
25112;DHT22;13092;51.996;4.458;2024-02-23T13:17:23;10.40;99.90
25112;DHT22;13092;51.996;4.458;2024-02-23T13:19:52;10.10;99.90
25112;DHT22;13092;51.996;4.458;2024-02-23T13:22:36;10.10;99.90
25112;DHT22;13092;51.996;4.458;2024-02-23T13:25:06;10.20;99.90
25112;DHT22;13092;51.996;4.458;2024-02-23T13:27:34;9.90;99.90
25112;DHT22;13092;51.996;4.458;2024-02-23T13:30:04;9.90;99.90
25112;DHT22;13092;51.996;4.458;2024-02-23T13:32:32;9.90;99.90
25112;DHT22;13092;51.996;4.458;2024-02-23T13:35:01;9.90;99.90
25112;DHT22;13092;51.996;4.458;2024-02-23T13:37:34;9.90;99.90
25112;DHT22;13092;51.996;4.458;2024-02-23T13:40:02;10.00;99.90
25112;DHT22;13092;51.996;4.458;2024-02-23T13:42:36;10.00;99.90
25112;DHT22;13092;51.996;4.458;2024-02-23T13:45:09;10.00;99.90
25112;DHT22;13092;51.996;4.458;2024-02-23T13:47:44;9.90;99.90
25112;DHT22;13092;51.996;4.458;2024-02-23T13:50:25;10.20;99.90
25112;DHT22;13092;51.996;4.458;2024-02-23T13:52:54;10.00;99.90
25112;DHT22;13092;51.996;4.458;2024-02-23T13:55:22;10.00;99.90
25112;DHT22;13092;51.996;4.458;2024-02-23T13:57:52;10.10;99.90
25112;DHT22;13092;51.996;4.458;2024-02-23T14:00:20;10.10;99.90
25112;DHT22;13092;51.996;4.458;2024-02-23T14:02:48;10.00;99.90
25112;DHT22;13092;51.996;4.458;2024-02-23T14:05:17;9.90;99.90
25112;DHT22;13092;51.996;4.458;2024-02-23T14:07:46;9.90;99.90
25112;DHT22;13092;51.996;4.458;2024-02-23T14:10:14;10.00;99.90
25112;DHT22;13092;51.996;4.458;2024-02-23T14:12:42;9.90;99.90
25112;DHT22;13092;51.996;4.458;2024-02-23T14:15:12;10.10;99.90
25112;DHT22;13092;51.996;4.458;2024-02-23T14:17:40;10.10;99.90
25112;DHT22;13092;51.996;4.458;2024-02-23T14:20:09;9.80;99.90
25112;DHT22;13092;51.996;4.458;2024-02-23T14:22:37;9.70;99.90
25112;DHT22;13092;51.996;4.458;2024-02-23T14:25:06;9.70;99.90
25112;DHT22;13092;51.996;4.458;2024-02-23T14:27:34;9.70;99.90
25112;DHT22;13092;51.996;4.458;2024-02-23T14:30:03;10.00;99.90
25112;DHT22;13092;51.996;4.458;2024-02-23T14:32:33;9.70;99.90
25112;DHT22;13092;51.996;4.458;2024-02-23T14:35:02;9.90;99.90
25112;DHT22;13092;51.996;4.458;2024-02-23T14:37:32;9.90;99.90
25112;DHT22;13092;51.996;4.458;2024-02-23T14:40:01;9.70;99.90
25112;DHT22;13092;51.996;4.458;2024-02-23T14:42:29;10.00;99.90
25112;DHT22;13092;51.996;4.458;2024-02-23T14:44:57;9.80;99.90
25112;DHT22;13092;51.996;4.458;2024-02-23T14:47:25;9.90;99.90
25112;DHT22;13092;51.996;4.458;2024-02-23T14:50:07;9.50;99.90
25112;DHT22;13092;51.996;4.458;2024-02-23T14:52:35;9.70;99.90
25112;DHT22;13092;51.996;4.458;2024-02-23T14:55:04;9.70;99.90
25112;DHT22;13092;51.996;4.458;2024-02-23T14:57:32;9.70;99.90
25112;DHT22;13092;51.996;4.458;2024-02-23T15:00:00;9.70;99.90
25112;DHT22;13092;51.996;4.458;2024-02-23T15:02:30;9.70;99.90
25112;DHT22;13092;51.996;4.458;2024-02-23T15:04:58;9.80;99.90
25112;DHT22;13092;51.996;4.458;2024-02-23T15:07:28;9.80;99.90
25112;DHT22;13092;51.996;4.458;2024-02-23T15:09:56;9.80;99.90
25112;DHT22;13092;51.996;4.458;2024-02-23T15:12:24;10.00;99.90
25112;DHT22;13092;51.996;4.458;2024-02-23T15:14:54;9.90;99.90
25112;DHT22;13092;51.996;4.458;2024-02-23T15:17:22;10.10;99.90
25112;DHT22;13092;51.996;4.458;2024-02-23T15:19:51;9.80;99.90
25112;DHT22;13092;51.996;4.458;2024-02-23T15:22:19;9.80;99.90
25112;DHT22;13092;51.996;4.458;2024-02-23T15:24:49;9.80;99.90
25112;DHT22;13092;51.996;4.458;2024-02-23T15:27:17;9.90;99.90
25112;DHT22;13092;51.996;4.458;2024-02-23T15:29:46;9.80;99.90
25112;DHT22;13092;51.996;4.458;2024-02-23T15:32:14;9.90;99.90
25112;DHT22;13092;51.996;4.458;2024-02-23T15:34:43;10.00;99.90
25112;DHT22;13092;51.996;4.458;2024-02-23T15:37:11;9.90;99.90
25112;DHT22;13092;51.996;4.458;2024-02-23T15:39:39;9.90;99.90
25112;DHT22;13092;51.996;4.458;2024-02-23T15:42:09;10.10;99.90
25112;DHT22;13092;51.996;4.458;2024-02-23T15:44:37;10.20;99.90
25112;DHT22;13092;51.996;4.458;2024-02-23T15:47:05;10.00;99.90
25112;DHT22;13092;51.996;4.458;2024-02-23T15:49:33;10.00;99.90
25112;DHT22;13092;51.996;4.458;2024-02-23T15:52:26;10.00;99.90
25112;DHT22;13092;51.996;4.458;2024-02-23T15:54:54;10.00;99.90
25112;DHT22;13092;51.996;4.458;2024-02-23T15:57:24;10.00;99.90